createdAt,value
2022-11-16T00:02:13.297Z,100057.91
2022-11-16T00:04:39.741Z,100059.56
2022-11-16T00:07:06.485Z,100053.63
2022-11-16T00:09:33.539Z,100051.00
2022-11-16T00:12:03.305Z,100051.75
2022-11-16T00:14:34.887Z,100047.53
2022-11-16T00:17:04.421Z,100048.38
2022-11-16T00:19:31.046Z,100051.75
2022-11-16T00:21:57.661Z,100051.69
2022-11-16T00:24:24.393Z,100044.00
2022-11-16T00:26:53.906Z,100049.06
2022-11-16T00:29:23.100Z,100042.19
2022-11-16T00:31:50.340Z,100043.94
2022-11-16T00:34:17.292Z,100045.53
2022-11-16T00:36:44.611Z,100037.84
2022-11-16T00:39:13.006Z,100047.19
2022-11-16T00:41:40.249Z,100046.22
2022-11-16T00:44:07.146Z,100040.19
2022-11-16T00:46:33.887Z,100042.75
2022-11-16T00:49:00.309Z,100030.78
2022-11-16T00:51:26.953Z,100032.50
2022-11-16T00:53:53.337Z,100035.84
2022-11-16T00:56:19.746Z,100029.94
2022-11-16T00:58:46.118Z,100032.50
2022-11-16T01:01:12.750Z,100035.91
2022-11-16T01:03:39.790Z,100026.47
2022-11-16T01:06:09.243Z,100023.91
2022-11-16T01:08:37.909Z,100029.13
2022-11-16T01:11:23.949Z,100028.22
2022-11-16T01:13:50.724Z,100029.03
2022-11-16T01:16:19.030Z,100031.59
2022-11-16T01:18:50.917Z,100014.56
2022-11-16T01:21:17.993Z,100023.91
2022-11-16T01:23:44.429Z,100023.03
2022-11-16T01:26:10.831Z,100017.91
2022-11-16T01:28:37.423Z,100020.38
2022-11-16T01:31:04.267Z,100019.56
2022-11-16T01:33:30.835Z,100018.59
2022-11-16T01:35:57.244Z,100014.38
2022-11-16T01:38:28.418Z,100009.22
2022-11-16T01:40:56.084Z,100009.16
2022-11-16T01:43:25.587Z,100007.41
2022-11-16T01:45:52.333Z,100016.03
2022-11-16T01:48:27.611Z,100015.09
2022-11-16T01:50:56.290Z,100015.19
2022-11-16T01:53:23.946Z,100010.94
2022-11-16T01:55:50.817Z,100009.22
2022-11-16T01:58:24.197Z,100014.38
2022-11-16T02:00:50.673Z,100005.81
2022-11-16T02:03:18.945Z,100010.06
2022-11-16T02:06:30.318Z,100008.25
2022-11-16T02:09:34.159Z,99985.19
2022-11-16T02:12:12.818Z,99995.53
2022-11-16T02:14:48.188Z,99987.00
2022-11-16T02:17:32.854Z,99990.41
2022-11-16T02:20:24.189Z,99995.53
2022-11-16T02:23:02.725Z,99979.22
2022-11-16T02:25:53.783Z,99979.22
2022-11-16T02:28:43.447Z,99981.78
2022-11-16T02:31:16.190Z,99980.16
2022-11-16T02:33:44.581Z,99974.94
2022-11-16T02:36:16.954Z,99976.66
2022-11-16T02:38:51.736Z,99982.56
2022-11-16T02:41:21.615Z,99984.22
2022-11-16T02:43:56.665Z,99980.75
2022-11-16T02:46:29.025Z,99973.03
2022-11-16T02:48:59.993Z,99973.13
2022-11-16T02:51:28.977Z,99977.44
2022-11-16T02:54:04.146Z,99981.66
2022-11-16T02:56:30.769Z,99976.47
2022-11-16T02:58:59.484Z,99975.69
2022-11-16T03:01:35.601Z,99980.06
2022-11-16T03:04:11.553Z,99977.44
2022-11-16T03:06:41.519Z,99974.06
2022-11-16T03:09:18.518Z,99977.34
2022-11-16T03:11:59.714Z,99987.59
2022-11-16T03:14:34.220Z,99986.88
2022-11-16T03:17:02.426Z,99977.44
2022-11-16T03:19:57.611Z,99985.13
2022-11-16T03:22:30.484Z,99986.03
2022-11-16T03:24:57.509Z,99990.31
2022-11-16T03:27:49.827Z,99981.78
2022-11-16T03:30:23.529Z,99987.84
2022-11-16T03:33:21.829Z,99993.78
2022-11-16T03:35:55.458Z,99987.06
2022-11-16T03:38:24.663Z,99995.66
2022-11-16T03:40:52.033Z,99989.69
2022-11-16T03:43:20.720Z,99989.78
2022-11-16T03:45:47.484Z,99996.63
2022-11-16T03:48:13.969Z,100007.84
2022-11-16T03:50:41.003Z,100001.97
2022-11-16T03:53:07.414Z,100002.03
2022-11-16T03:55:33.842Z,99993.50
2022-11-16T03:58:01.370Z,99995.31
2022-11-16T04:00:27.761Z,99998.78
2022-11-16T04:02:54.246Z,99999.75
2022-11-16T04:05:39.186Z,100010.16
2022-11-16T04:08:24.623Z,100013.59
2022-11-16T04:11:09.791Z,100011.13
2022-11-16T04:13:54.700Z,100012.91
2022-11-16T04:16:39.524Z,100010.50
2022-11-16T04:19:24.402Z,100012.34
2022-11-16T04:22:12.742Z,100011.72
2022-11-16T04:24:41.805Z,100005.84
2022-11-16T04:27:31.873Z,100006.75
2022-11-16T04:30:01.156Z,100017.09
2022-11-16T04:32:46.600Z,100012.13
2022-11-16T04:35:31.856Z,100018.22
2022-11-16T04:37:59.412Z,100012.34
2022-11-16T04:40:30.211Z,100028.72
2022-11-16T04:42:58.793Z,100022.03
2022-11-16T04:45:44.754Z,100016.19
2022-11-16T04:48:12.543Z,100018.84
2022-11-16T04:50:39.978Z,100021.44
2022-11-16T04:53:07.552Z,100018.13
2022-11-16T04:55:34.354Z,100019.09
2022-11-16T04:58:01.420Z,100026.06
2022-11-16T05:00:28.659Z,100029.59
2022-11-16T05:03:00.788Z,100027.09
2022-11-16T05:05:27.851Z,100022.94
2022-11-16T05:07:54.260Z,100023.97
2022-11-16T05:10:20.661Z,100031.00
2022-11-16T05:12:47.058Z,100034.59
2022-11-16T05:15:13.491Z,100036.44
2022-11-16T05:17:39.961Z,100033.19
2022-11-16T05:20:25.414Z,100037.63
2022-11-16T05:23:00.709Z,100043.72
2022-11-16T05:25:29.311Z,100049.78
2022-11-16T05:27:57.705Z,100046.56
2022-11-16T05:30:24.178Z,100053.47
2022-11-16T05:32:50.696Z,100046.75
2022-11-16T05:35:17.146Z,100046.00
2022-11-16T05:37:44.539Z,100050.31
2022-11-16T05:40:11.777Z,100054.69
2022-11-16T05:42:38.254Z,100055.66
2022-11-16T05:45:05.121Z,100057.41
2022-11-16T05:47:33.370Z,100060.09
2022-11-16T05:49:59.773Z,100067.78
2022-11-16T05:52:26.172Z,100065.28
2022-11-16T05:54:52.561Z,100061.00
2022-11-16T05:57:18.989Z,100069.56
2022-11-16T05:59:45.456Z,100071.28
2022-11-16T06:02:14.555Z,100068.72
2022-11-16T06:04:40.962Z,100079.09
2022-11-16T06:07:07.366Z,100072.38
2022-11-16T06:09:33.785Z,100067.28
2022-11-16T06:12:00.172Z,100071.66
2022-11-16T06:14:26.599Z,100071.66
2022-11-16T06:16:53.134Z,100068.28
2022-11-16T06:19:19.633Z,100065.72
2022-11-16T06:21:46.048Z,100066.59
2022-11-16T06:24:12.429Z,100063.19
2022-11-16T06:26:38.843Z,100068.31
2022-11-16T06:29:05.353Z,100063.25
2022-11-16T06:31:31.805Z,100072.66
2022-11-16T06:33:58.214Z,100074.38
2022-11-16T06:36:25.609Z,100076.16
2022-11-16T06:38:52.091Z,100072.88
2022-11-16T06:41:18.626Z,100074.63
2022-11-16T06:43:45.152Z,100077.28
2022-11-16T06:46:11.677Z,100085.91
2022-11-16T06:48:38.172Z,100094.56
2022-11-16T06:51:04.696Z,100089.66
2022-11-16T06:53:31.117Z,100088.09
2022-11-16T06:56:05.236Z,100095.06
2022-11-16T06:58:32.768Z,100097.00
2022-11-16T07:01:09.804Z,100095.50
2022-11-16T07:03:36.404Z,100097.34
2022-11-16T07:06:10.525Z,100098.34
2022-11-16T07:08:37.303Z,100102.72
2022-11-16T07:11:05.387Z,100109.66
2022-11-16T07:13:33.398Z,100109.03
2022-11-16T07:16:06.436Z,100122.06
2022-11-16T07:18:35.084Z,100116.22
2022-11-16T07:21:13.333Z,100117.16
2022-11-16T07:23:40.014Z,100118.97
2022-11-16T07:26:08.169Z,100122.47
2022-11-16T07:28:34.810Z,100128.50
2022-11-16T07:31:03.261Z,100133.72
2022-11-16T07:33:29.749Z,100135.53
2022-11-16T07:36:02.179Z,100139.88
2022-11-16T07:38:29.228Z,100141.59
2022-11-16T07:40:59.976Z,100145.06
2022-11-16T07:43:27.753Z,100140.88
2022-11-16T07:45:55.739Z,100155.34
2022-11-16T07:48:24.853Z,100151.09
2022-11-16T07:50:51.237Z,100154.53
2022-11-16T07:53:23.445Z,100152.72
2022-11-16T07:55:53.811Z,100165.44
2022-11-16T07:58:21.396Z,100165.41
2022-11-16T08:00:48.134Z,100176.41
2022-11-16T08:03:16.496Z,100167.81
2022-11-16T08:05:46.949Z,100177.13
2022-11-16T08:08:13.589Z,100181.31
2022-11-16T08:10:39.937Z,100186.31
2022-11-16T08:13:06.351Z,100189.66
2022-11-16T08:15:32.754Z,100182.75
2022-11-16T08:17:59.151Z,100196.25
2022-11-16T08:20:25.637Z,100189.41
2022-11-16T08:22:51.988Z,100197.88
2022-11-16T08:25:18.514Z,100194.34
2022-11-16T08:27:45.682Z,100196.75
2022-11-16T08:30:12.998Z,100190.69
2022-11-16T08:32:41.142Z,100193.06
2022-11-16T08:35:07.904Z,100198.06
2022-11-16T08:37:34.485Z,100199.66
2022-11-16T08:40:02.401Z,100194.31
2022-11-16T08:42:28.917Z,100192.63
2022-11-16T08:44:55.268Z,100193.44
2022-11-16T08:47:22.620Z,100207.00
2022-11-16T08:49:49.783Z,100195.84
2022-11-16T08:52:16.364Z,100210.13
2022-11-16T08:54:42.705Z,100204.75
2022-11-16T08:57:09.130Z,100207.06
2022-11-16T08:59:35.516Z,100205.28
2022-11-16T09:02:02.016Z,100206.03
2022-11-16T09:04:32.732Z,100205.91
2022-11-16T09:07:02.199Z,100209.22
2022-11-16T09:09:28.576Z,100202.06
2022-11-16T09:11:55.587Z,100201.06
2022-11-16T09:14:21.971Z,100203.22
2022-11-16T09:16:49.354Z,100202.78
2022-11-16T09:19:15.781Z,100207.63
2022-11-16T09:21:42.547Z,100205.78
2022-11-16T09:24:09.180Z,100208.41
2022-11-16T09:26:35.565Z,100204.78
2022-11-16T09:29:04.274Z,100207.41
2022-11-16T09:31:34.605Z,100214.06
2022-11-16T09:34:00.970Z,100216.28
2022-11-16T09:36:28.782Z,100219.56
2022-11-16T09:39:29.407Z,100221.13
2022-11-16T09:42:00.837Z,100219.28
2022-11-16T09:44:42.348Z,100229.31
2022-11-16T09:47:19.441Z,100218.06
2022-11-16T09:49:52.229Z,100219.88
2022-11-16T09:52:40.471Z,100224.78
2022-11-16T09:55:36.733Z,100225.06
2022-11-16T09:58:12.753Z,100226.31
2022-11-16T10:00:44.551Z,100225.34
2022-11-16T10:03:15.116Z,100228.75
2022-11-16T10:05:50.422Z,100227.84
2022-11-16T10:08:33.624Z,100229.44
2022-11-16T10:11:23.599Z,100221.59
2022-11-16T10:14:04.395Z,100223.88
2022-11-16T10:16:48.519Z,100227.97
2022-11-16T10:19:41.561Z,100224.28
2022-11-16T10:22:32.703Z,100219.72
2022-11-16T10:25:07.135Z,100220.69
2022-11-16T10:28:15.605Z,100216.28
2022-11-16T10:30:59.688Z,100216.94
2022-11-16T10:33:35.449Z,100212.53
2022-11-16T10:36:13.988Z,100219.47
2022-11-16T10:38:42.300Z,100218.69
2022-11-16T10:41:21.019Z,100221.19
2022-11-16T10:43:48.720Z,100218.63
2022-11-16T10:46:36.244Z,100221.00
2022-11-16T10:49:16.133Z,100218.50
2022-11-16T10:51:45.842Z,100218.22
2022-11-16T10:54:16.202Z,100219.31
2022-11-16T10:56:46.658Z,100216.94
2022-11-16T10:59:15.653Z,100229.34
2022-11-16T11:01:58.971Z,100217.28
2022-11-16T11:04:29.887Z,100218.97
2022-11-16T11:07:02.089Z,100217.91
2022-11-16T11:09:38.185Z,100215.19
2022-11-16T11:12:32.998Z,100222.97
2022-11-16T11:15:11.220Z,100215.25
2022-11-16T11:17:47.283Z,100215.66
2022-11-16T11:20:16.625Z,100215.66
2022-11-16T11:22:52.320Z,100217.88
2022-11-16T11:25:25.932Z,100216.91
2022-11-16T11:28:05.307Z,100209.03
2022-11-16T11:30:32.317Z,100200.06
2022-11-16T11:32:59.259Z,100205.13
2022-11-16T11:35:30.076Z,100198.88
2022-11-16T11:38:03.376Z,100192.78
2022-11-16T11:40:33.694Z,100187.31
2022-11-16T11:43:05.367Z,100189.38
2022-11-16T11:45:46.675Z,100184.25
2022-11-16T11:48:47.965Z,100181.69
2022-11-16T11:51:25.454Z,100180.03
2022-11-16T11:53:53.957Z,100175.38
2022-11-16T11:56:20.612Z,100173.97
2022-11-16T11:58:48.345Z,100176.56
2022-11-16T12:01:49.223Z,100180.09
2022-11-16T12:04:50.221Z,100183.19
2022-11-16T12:07:29.441Z,100183.16
2022-11-16T12:10:14.643Z,100174.59
2022-11-16T12:13:19.020Z,100176.28
2022-11-16T12:16:04.197Z,100182.53
2022-11-16T12:18:49.532Z,100183.50
2022-11-16T12:21:49.837Z,100179.34
2022-11-16T12:24:34.541Z,100176.78
2022-11-16T12:27:19.968Z,100177.81
2022-11-16T12:30:11.379Z,100178.47
2022-11-16T12:32:51.867Z,100170.66
2022-11-16T12:35:48.755Z,100189.31
2022-11-16T12:38:34.918Z,100174.94
2022-11-16T12:41:19.279Z,100174.06
2022-11-16T12:44:08.921Z,100165.97
2022-11-16T12:46:47.136Z,100161.41
2022-11-16T12:50:01.208Z,100159.22
2022-11-16T12:52:54.385Z,100152.16
2022-11-16T12:55:30.031Z,100138.31
2022-11-16T12:58:07.265Z,100139.03
2022-11-16T13:00:50.080Z,100145.13
2022-11-16T13:03:23.507Z,100138.31
2022-11-16T13:05:56.842Z,100137.28
2022-11-16T13:08:40.050Z,100140.78
2022-11-16T13:11:22.473Z,100141.13
2022-11-16T13:13:53.849Z,100140.38
2022-11-16T13:16:21.939Z,100141.63
2022-11-16T13:18:48.513Z,100124.88
2022-11-16T13:21:25.552Z,100137.00
2022-11-16T13:24:22.939Z,100129.63
2022-11-16T13:27:10.823Z,100121.31
2022-11-16T13:29:46.470Z,100118.94
2022-11-16T13:32:28.371Z,100132.88
2022-11-16T13:34:55.335Z,100129.59
2022-11-16T13:37:37.428Z,100128.09
2022-11-16T13:40:06.732Z,100137.66
2022-11-16T13:42:42.945Z,100129.22
2022-11-16T13:45:17.674Z,100134.53
2022-11-16T13:47:55.954Z,100140.00
2022-11-16T13:50:33.024Z,100130.88
2022-11-16T13:56:15.970Z,100118.19
2022-11-16T13:58:55.534Z,100114.03
2022-11-16T14:01:23.775Z,100112.38
2022-11-16T14:03:52.207Z,100112.38
2022-11-16T14:06:24.753Z,100101.97
2022-11-16T14:08:53.087Z,100100.09
2022-11-16T14:11:40.698Z,100101.78
2022-11-16T14:14:48.599Z,100103.53
2022-11-16T14:18:00.872Z,100103.63
2022-11-16T14:20:37.088Z,100098.66
2022-11-16T14:23:11.826Z,100095.19
2022-11-16T14:25:47.270Z,100092.28
2022-11-16T14:28:19.654Z,100091.03
2022-11-16T14:31:07.751Z,100085.50
2022-11-16T14:33:37.225Z,100083.13
2022-11-16T14:36:07.559Z,100084.16
2022-11-16T14:38:36.664Z,100087.75
2022-11-16T14:41:05.902Z,100087.84
2022-11-16T14:43:42.035Z,100081.69
2022-11-16T14:46:27.977Z,100077.19
2022-11-16T14:48:57.152Z,100072.75
2022-11-16T14:51:34.912Z,100064.44
2022-11-16T14:54:25.824Z,100060.44
2022-11-16T14:57:00.467Z,100053.75
2022-11-16T14:59:28.046Z,100060.69
2022-11-16T15:01:54.667Z,100061.66
2022-11-16T15:04:24.169Z,100055.91
2022-11-16T15:06:56.012Z,100052.56
2022-11-16T15:09:28.215Z,100052.84
2022-11-16T15:12:13.832Z,100060.72
2022-11-16T15:14:46.364Z,100052.53
2022-11-16T15:17:18.267Z,100045.81
2022-11-16T15:19:54.459Z,100040.97
2022-11-16T15:22:23.922Z,100032.66
2022-11-16T15:24:58.666Z,100048.22
2022-11-16T15:27:34.564Z,100032.44
2022-11-16T15:30:03.642Z,100026.66
2022-11-16T15:32:31.340Z,100025.13
2022-11-16T15:35:02.463Z,100032.22
2022-11-16T15:37:31.686Z,100031.56
2022-11-16T15:39:59.901Z,100021.56
2022-11-16T15:42:28.589Z,100025.97
2022-11-16T15:44:55.865Z,100021.06
2022-11-16T15:47:23.522Z,100017.06
2022-11-16T15:49:52.820Z,100013.84
2022-11-16T15:52:42.661Z,99997.84
2022-11-16T15:55:28.795Z,99993.03
2022-11-16T15:58:26.357Z,99992.44
2022-11-16T16:00:54.600Z,99989.31
2022-11-16T16:03:25.099Z,99988.66
2022-11-16T16:05:52.316Z,99986.28
2022-11-16T16:08:38.561Z,99963.53
2022-11-16T16:11:20.338Z,99962.81
2022-11-16T16:14:24.406Z,99980.88
2022-11-16T16:16:53.463Z,99988.78
2022-11-16T16:19:44.671Z,99992.34
2022-11-16T16:22:28.289Z,99989.16
2022-11-16T16:24:55.264Z,99988.34
2022-11-16T16:27:24.377Z,99988.44
2022-11-16T16:29:52.823Z,99981.72
2022-11-16T16:32:28.141Z,99966.44
2022-11-16T16:34:56.970Z,99967.31
2022-11-16T16:37:26.265Z,99957.09
2022-11-16T16:39:52.776Z,99955.44
2022-11-16T16:42:19.294Z,99960.59
2022-11-16T16:44:47.071Z,99962.34
2022-11-16T16:47:14.972Z,99963.28
2022-11-16T16:49:41.863Z,99954.91
2022-11-16T16:52:11.929Z,99958.28
2022-11-16T16:54:38.534Z,99953.44
2022-11-16T16:57:04.935Z,99949.31
2022-11-16T16:59:31.341Z,99953.66
2022-11-16T17:01:58.464Z,99946.94
2022-11-16T17:04:25.363Z,99941.00
2022-11-16T17:06:52.588Z,99929.13
2022-11-16T17:09:19.074Z,99921.47
2022-11-16T17:11:46.818Z,99932.56
2022-11-16T17:14:13.209Z,99936.94
2022-11-16T17:16:39.609Z,99937.00
2022-11-16T17:19:05.987Z,99924.38
2022-11-16T17:21:32.445Z,99927.84
2022-11-16T17:23:58.959Z,99935.59
2022-11-16T17:26:29.153Z,99928.94
2022-11-16T17:28:57.015Z,99930.75
2022-11-16T17:31:24.205Z,99936.00
2022-11-16T17:33:51.211Z,99931.88
2022-11-16T17:36:17.854Z,99935.31
2022-11-16T17:38:44.408Z,99939.63
2022-11-16T17:41:14.914Z,99933.81
2022-11-16T17:43:42.841Z,99939.91
2022-11-16T17:46:11.650Z,99931.56
2022-11-16T17:48:39.595Z,99932.53
2022-11-16T17:51:06.515Z,99916.50
2022-11-16T17:53:35.442Z,99910.69
2022-11-16T17:56:03.524Z,99909.94
2022-11-16T17:58:30.929Z,99913.41
2022-11-16T18:00:57.504Z,99909.97
2022-11-16T18:03:29.570Z,99907.44
2022-11-16T18:06:06.560Z,99902.31
2022-11-16T18:08:34.331Z,99910.81
2022-11-16T18:11:09.726Z,99905.63
2022-11-16T18:13:37.165Z,99909.69
2022-11-16T18:16:11.064Z,99907.84
2022-11-16T18:18:38.468Z,99902.56
2022-11-16T18:21:06.500Z,99899.00
2022-11-16T18:23:34.351Z,99898.91
2022-11-16T18:26:03.351Z,99893.63
2022-11-16T18:28:30.231Z,99897.72
2022-11-16T18:31:08.638Z,99900.94
2022-11-16T18:33:37.199Z,99904.16
2022-11-16T18:36:05.007Z,99904.06
2022-11-16T18:38:31.532Z,99898.97
2022-11-16T18:41:12.997Z,99900.56
2022-11-16T18:43:40.893Z,99892.84
2022-11-16T18:46:07.563Z,99887.66
2022-11-16T18:48:34.214Z,99888.50
2022-11-16T18:51:03.861Z,99882.56
2022-11-16T18:53:31.776Z,99879.13
2022-11-16T18:55:58.621Z,99879.88
2022-11-16T18:58:49.332Z,99873.97
2022-11-16T19:01:15.263Z,99871.19
2022-11-16T19:03:41.726Z,99861.78
2022-11-16T19:06:09.746Z,99859.94
2022-11-16T19:08:37.918Z,99859.81
2022-11-16T19:11:05.776Z,99854.50
2022-11-16T19:13:32.947Z,99849.38
2022-11-16T19:15:59.841Z,99839.16
2022-11-16T19:18:27.298Z,99839.91
2022-11-16T19:21:21.889Z,99825.47
2022-11-16T19:23:53.046Z,99811.94
2022-11-16T19:26:21.495Z,99806.84
2022-11-16T19:28:49.501Z,99801.00
2022-11-16T19:31:21.042Z,99799.31
2022-11-16T19:33:47.556Z,99790.78
2022-11-16T19:36:16.458Z,99789.97
2022-11-16T19:38:44.413Z,99791.69
2022-11-16T19:41:12.719Z,99770.34
2022-11-16T19:43:39.389Z,99771.97
2022-11-16T19:46:17.913Z,99776.94
2022-11-16T19:48:45.804Z,99766.72
2022-11-16T19:51:16.053Z,99763.22
2022-11-16T19:53:42.529Z,99746.25
2022-11-16T19:56:11.633Z,99751.28
2022-11-16T19:58:38.719Z,99741.81
2022-11-16T20:01:10.852Z,99734.94
2022-11-16T20:03:38.457Z,99735.69
2022-11-16T20:06:22.631Z,99729.69
2022-11-16T20:08:53.851Z,99729.69
2022-11-16T20:11:21.348Z,99718.56
2022-11-16T20:13:48.847Z,99711.69
2022-11-16T20:16:16.540Z,99710.78
2022-11-16T20:18:43.893Z,99703.94
2022-11-16T20:21:19.152Z,99692.06
2022-11-16T20:23:45.611Z,99699.72
2022-11-16T20:26:13.537Z,99696.28
2022-11-16T20:28:42.315Z,99698.00
2022-11-16T20:31:20.442Z,99699.72
2022-11-16T20:33:52.061Z,99693.59
2022-11-16T20:36:19.364Z,99700.28
2022-11-16T20:38:45.723Z,99687.38
2022-11-16T20:41:17.560Z,99681.38
2022-11-16T20:43:45.001Z,99677.03
2022-11-16T20:46:16.784Z,99672.69
2022-11-16T20:48:43.991Z,99665.00
2022-11-16T20:51:13.150Z,99659.78
2022-11-16T20:53:39.706Z,99659.72
2022-11-16T20:56:07.733Z,99654.53
2022-11-16T20:58:34.941Z,99654.31
2022-11-16T21:01:03.019Z,99648.31
2022-11-16T21:03:29.464Z,99646.59
2022-11-16T21:05:55.994Z,99648.22
2022-11-16T21:08:24.411Z,99643.06
2022-11-16T21:10:50.946Z,99636.22
2022-11-16T21:13:37.703Z,99623.44
2022-11-16T21:16:06.743Z,99606.44
2022-11-16T21:18:33.820Z,99598.78
2022-11-16T21:21:04.909Z,99595.25
2022-11-16T21:23:33.370Z,99595.34
2022-11-16T21:26:08.223Z,99591.13
2022-11-16T21:28:34.740Z,99585.25
2022-11-16T21:31:03.306Z,99579.31
2022-11-16T21:33:30.178Z,99572.53
2022-11-16T21:35:56.646Z,99568.19
2022-11-16T21:38:25.547Z,99562.25
2022-11-16T21:40:51.935Z,99556.22
2022-11-16T21:43:18.345Z,99553.66
2022-11-16T21:45:46.586Z,99554.50
2022-11-16T21:48:13.556Z,99539.91
2022-11-16T21:50:40.010Z,99523.84
2022-11-16T21:53:07.206Z,99518.72
2022-11-16T21:55:34.372Z,99514.53
2022-11-16T21:58:03.387Z,99513.69
2022-11-16T22:00:30.323Z,99507.75
2022-11-16T22:02:56.923Z,99497.53
2022-11-16T22:05:41.964Z,99499.25
2022-11-16T22:08:11.586Z,99495.81
2022-11-16T22:10:38.115Z,99483.09
2022-11-16T22:13:06.738Z,99478.91
2022-11-16T22:15:33.298Z,99479.72
2022-11-16T22:18:02.468Z,99475.41
2022-11-16T22:20:31.707Z,99466.84
2022-11-16T22:22:58.157Z,99463.41
2022-11-16T22:25:27.715Z,99452.38
2022-11-16T22:30:40.813Z,99431.00
2022-11-16T22:33:07.185Z,99427.63
2022-11-16T22:35:33.547Z,99420.78
2022-11-16T22:38:02.276Z,99412.22
2022-11-16T22:40:28.645Z,99402.06
2022-11-16T22:42:59.097Z,99392.75
2022-11-16T22:45:26.001Z,99379.84
2022-11-16T22:47:54.899Z,99389.13
2022-11-16T22:50:23.328Z,99378.00
2022-11-16T22:52:49.765Z,99378.81
2022-11-16T22:55:16.144Z,99362.69
2022-11-16T22:57:42.570Z,99349.91
2022-11-16T23:00:09.970Z,99341.41
2022-11-16T23:02:36.347Z,99338.94
2022-11-16T23:05:02.730Z,99332.97
2022-11-16T23:07:29.138Z,99326.97
2022-11-16T23:09:55.528Z,99319.31
2022-11-16T23:12:40.183Z,99307.44
2022-11-16T23:15:30.559Z,99306.63
2022-11-16T23:17:57.218Z,99299.75
2022-11-16T23:20:42.414Z,99304.78
2022-11-16T23:23:38.436Z,99292.09
2022-11-16T23:26:41.649Z,99283.69
2022-11-16T23:29:10.339Z,99276.94
2022-11-16T23:31:37.870Z,99273.53
2022-11-16T23:34:04.713Z,99264.22
2022-11-16T23:36:31.179Z,99254.81
2022-11-16T23:38:57.586Z,99258.28
2022-11-16T23:41:42.663Z,99242.13
2022-11-16T23:44:09.079Z,99222.59
2022-11-16T23:46:35.468Z,99215.00
2022-11-16T23:49:02.122Z,99209.91
2022-11-16T23:51:28.516Z,99198.78
2022-11-16T23:53:55.747Z,99178.41
2022-11-16T23:56:22.649Z,99168.25
2022-11-16T23:58:49.294Z,99152.09
